createdAt,value
2023-01-15T00:02:08.426Z,6.60
2023-01-15T00:04:34.982Z,6.71
2023-01-15T00:07:02.325Z,6.75
2023-01-15T00:09:28.673Z,6.75
2023-01-15T00:11:55.110Z,6.63
2023-01-15T00:14:21.512Z,6.57
2023-01-15T00:16:50.543Z,6.67
2023-01-15T00:19:17.034Z,6.73
2023-01-15T00:21:43.443Z,6.76
2023-01-15T00:24:28.309Z,6.76
2023-01-15T00:27:19.118Z,6.93
2023-01-15T00:29:45.454Z,6.79
2023-01-15T00:32:11.861Z,6.79
2023-01-15T00:34:38.481Z,6.86
2023-01-15T00:37:05.004Z,6.98
2023-01-15T00:39:31.369Z,6.92
2023-01-15T00:41:57.769Z,6.94
2023-01-15T00:44:24.291Z,6.97
2023-01-15T00:46:50.705Z,7.04
2023-01-15T00:49:17.224Z,7.02
2023-01-15T00:51:44.697Z,7.02
2023-01-15T00:54:11.032Z,7.03
2023-01-15T00:56:37.421Z,7.02
2023-01-15T00:59:04.799Z,7.06
2023-01-15T01:01:31.718Z,7.06
2023-01-15T01:03:58.222Z,7.09
2023-01-15T01:06:25.001Z,6.95
2023-01-15T01:08:51.387Z,7.17
2023-01-15T01:11:18.968Z,7.20
2023-01-15T01:13:45.832Z,7.20
2023-01-15T01:16:21.625Z,7.40
2023-01-15T01:18:47.955Z,7.35
2023-01-15T01:21:21.276Z,7.42
2023-01-15T01:23:48.877Z,7.32
2023-01-15T01:26:15.584Z,7.42
2023-01-15T01:28:42.291Z,7.65
2023-01-15T01:31:09.136Z,7.49
2023-01-15T01:33:35.745Z,7.58
2023-01-15T01:36:02.166Z,7.34
2023-01-15T01:38:28.590Z,7.43
2023-01-15T01:40:54.909Z,7.42
2023-01-15T01:43:23.808Z,7.93
2023-01-15T01:45:57.150Z,7.56
2023-01-15T01:48:29.051Z,7.78
2023-01-15T01:50:57.889Z,7.83
2023-01-15T01:53:27.868Z,7.64
2023-01-15T01:55:55.760Z,7.83
2023-01-15T01:58:22.956Z,8.11
2023-01-15T02:00:50.636Z,7.70
2023-01-15T02:03:18.082Z,7.65
2023-01-15T02:05:47.468Z,7.74
2023-01-15T02:08:13.795Z,7.61
2023-01-15T02:10:41.645Z,7.71
2023-01-15T02:13:21.405Z,7.88
2023-01-15T02:16:00.447Z,7.67
2023-01-15T02:18:31.638Z,7.93
2023-01-15T02:21:06.218Z,7.82
2023-01-15T02:23:37.117Z,7.97
2023-01-15T02:26:27.042Z,7.95
2023-01-15T02:29:01.203Z,7.79
2023-01-15T02:31:30.193Z,7.72
2023-01-15T02:34:05.593Z,7.83
2023-01-15T02:36:34.619Z,7.79
2023-01-15T02:39:04.774Z,7.65
2023-01-15T02:41:34.716Z,7.99
2023-01-15T02:44:02.857Z,7.98
2023-01-15T02:46:34.961Z,7.71
2023-01-15T02:49:02.415Z,7.83
2023-01-15T02:51:31.726Z,7.75
2023-01-15T02:54:01.421Z,7.90
2023-01-15T02:56:30.184Z,7.71
2023-01-15T02:58:59.490Z,7.77
2023-01-15T03:01:34.582Z,7.65
2023-01-15T03:04:13.986Z,7.87
2023-01-15T03:06:46.323Z,7.90
2023-01-15T03:09:14.103Z,7.73
2023-01-15T03:11:44.661Z,7.88
2023-01-15T03:14:20.742Z,8.12
2023-01-15T03:16:55.949Z,7.83
2023-01-15T03:19:31.238Z,7.84
2023-01-15T03:22:12.676Z,7.83
2023-01-15T03:24:41.867Z,7.78
2023-01-15T03:27:08.301Z,8.00
2023-01-15T03:29:38.010Z,7.67
2023-01-15T03:32:05.074Z,7.72
2023-01-15T03:34:35.344Z,7.45
2023-01-15T03:37:02.732Z,7.62
2023-01-15T03:39:29.243Z,7.92
2023-01-15T03:42:16.212Z,7.87
2023-01-15T03:44:56.064Z,7.66
2023-01-15T03:47:24.412Z,7.62
2023-01-15T03:50:04.168Z,7.47
2023-01-15T03:52:39.442Z,7.69
2023-01-15T03:55:08.816Z,7.61
2023-01-15T03:57:38.060Z,7.65
2023-01-15T04:00:09.807Z,7.41
2023-01-15T04:02:36.653Z,7.21
2023-01-15T04:05:03.607Z,7.20
2023-01-15T04:07:30.774Z,7.34
2023-01-15T04:09:57.480Z,7.47
2023-01-15T04:12:23.979Z,7.47
2023-01-15T04:14:50.346Z,7.24
2023-01-15T04:17:16.721Z,7.23
2023-01-15T04:19:44.427Z,7.26
2023-01-15T04:22:11.542Z,7.39
2023-01-15T04:24:39.947Z,7.27
2023-01-15T04:27:06.360Z,7.27
2023-01-15T04:29:32.704Z,7.24
2023-01-15T04:31:59.150Z,7.26
2023-01-15T04:34:26.775Z,7.31
2023-01-15T04:36:53.379Z,7.25
2023-01-15T04:39:25.993Z,7.29
2023-01-15T04:42:11.144Z,7.35
2023-01-15T04:44:38.087Z,7.26
2023-01-15T04:47:04.528Z,7.69
2023-01-15T04:49:30.899Z,7.19
2023-01-15T04:51:57.258Z,7.19
2023-01-15T04:54:23.759Z,7.45
2023-01-15T04:56:51.644Z,7.25
2023-01-15T04:59:19.389Z,7.19
2023-01-15T05:02:01.759Z,7.18
2023-01-15T05:04:28.848Z,7.19
2023-01-15T05:06:55.212Z,7.19
2023-01-15T05:09:21.553Z,7.20
2023-01-15T05:11:48.060Z,7.39
2023-01-15T05:14:15.378Z,7.21
2023-01-15T05:16:41.713Z,7.24
2023-01-15T05:19:08.151Z,7.68
2023-01-15T05:21:35.677Z,7.20
2023-01-15T05:24:04.293Z,7.41
2023-01-15T05:26:31.500Z,7.28
2023-01-15T05:28:58.639Z,7.69
2023-01-15T05:31:25.543Z,7.30
2023-01-15T05:33:52.673Z,7.24
2023-01-15T05:36:21.872Z,7.00
2023-01-15T05:38:48.264Z,7.58
2023-01-15T05:41:35.034Z,7.59
2023-01-15T05:44:04.225Z,7.35
2023-01-15T05:46:30.961Z,7.23
2023-01-15T05:49:01.051Z,7.32
2023-01-15T05:51:27.522Z,7.25
2023-01-15T05:53:53.873Z,7.31
2023-01-15T05:56:20.207Z,7.59
2023-01-15T05:58:47.319Z,7.44
2023-01-15T06:01:13.647Z,7.52
2023-01-15T06:03:41.657Z,7.38
2023-01-15T06:06:12.583Z,7.27
2023-01-15T06:08:38.970Z,7.59
2023-01-15T06:11:07.091Z,7.54
2023-01-15T06:13:33.725Z,7.42
2023-01-15T06:16:00.657Z,7.46
2023-01-15T06:18:27.674Z,7.45
2023-01-15T06:20:53.999Z,7.47
2023-01-15T06:23:20.345Z,7.49
2023-01-15T06:25:46.667Z,7.38
2023-01-15T06:28:12.994Z,7.57
2023-01-15T06:30:40.495Z,7.33
2023-01-15T06:33:07.523Z,7.33
2023-01-15T06:35:41.915Z,7.53
2023-01-15T06:38:08.227Z,7.26
2023-01-15T06:40:34.584Z,7.62
2023-01-15T06:43:19.375Z,7.25
2023-01-15T06:46:04.397Z,7.34
2023-01-15T06:48:35.916Z,7.18
2023-01-15T06:51:02.754Z,7.76
2023-01-15T06:53:29.111Z,7.61
2023-01-15T06:55:55.548Z,7.51
2023-01-15T06:58:24.839Z,7.35
2023-01-15T07:00:56.209Z,7.35
2023-01-15T07:03:23.827Z,7.29
2023-01-15T07:05:50.237Z,7.68
2023-01-15T07:08:16.898Z,7.32
2023-01-15T07:10:43.293Z,7.53
2023-01-15T07:13:10.147Z,7.44
2023-01-15T07:15:37.962Z,7.35
2023-01-15T07:18:05.331Z,7.39
2023-01-15T07:20:31.713Z,7.25
2023-01-15T07:22:58.051Z,7.43
2023-01-15T07:25:24.446Z,7.51
2023-01-15T07:27:50.793Z,7.47
2023-01-15T07:30:17.314Z,7.44
2023-01-15T07:32:43.737Z,7.34
2023-01-15T07:35:10.273Z,7.39
2023-01-15T07:37:37.813Z,7.35
2023-01-15T07:40:04.387Z,7.45
2023-01-15T07:42:49.265Z,7.38
2023-01-15T07:45:42.743Z,7.52
2023-01-15T07:48:29.233Z,7.48
2023-01-15T07:50:55.583Z,7.49
2023-01-15T07:53:21.935Z,7.44
2023-01-15T07:55:48.332Z,7.50
2023-01-15T07:58:20.503Z,7.50
2023-01-15T08:00:46.864Z,7.48
2023-01-15T08:03:13.205Z,7.32
2023-01-15T08:05:39.619Z,7.41
2023-01-15T08:08:05.961Z,7.33
2023-01-15T08:10:32.298Z,7.14
2023-01-15T08:13:31.044Z,7.36
2023-01-15T08:15:57.373Z,7.41
2023-01-15T08:18:23.767Z,7.66
2023-01-15T08:20:50.119Z,7.77
2023-01-15T08:23:16.450Z,7.80
2023-01-15T08:25:43.876Z,7.80
2023-01-15T08:28:14.080Z,7.77
2023-01-15T08:30:40.400Z,7.83
2023-01-15T08:33:06.773Z,7.81
2023-01-15T08:35:34.533Z,7.84
2023-01-15T08:38:13.016Z,7.84
2023-01-15T08:40:58.616Z,7.82
2023-01-15T08:43:26.098Z,7.80
2023-01-15T08:45:52.869Z,7.78
2023-01-15T08:48:19.257Z,7.86
2023-01-15T08:50:47.267Z,7.93
2023-01-15T08:53:13.811Z,7.67
2023-01-15T08:55:40.891Z,7.75
2023-01-15T08:58:07.303Z,7.78
2023-01-15T09:00:34.220Z,7.83
2023-01-15T09:03:02.795Z,7.92
2023-01-15T09:05:29.291Z,8.16
2023-01-15T09:07:55.914Z,8.19
2023-01-15T09:10:22.636Z,8.09
2023-01-15T09:12:49.923Z,7.95
2023-01-15T09:15:17.057Z,7.88
2023-01-15T09:17:46.653Z,7.87
2023-01-15T09:20:13.399Z,7.68
2023-01-15T09:22:40.123Z,7.79
2023-01-15T09:25:08.777Z,7.63
2023-01-15T09:27:35.375Z,7.65
2023-01-15T09:30:01.795Z,7.58
2023-01-15T09:32:28.186Z,7.48
2023-01-15T09:34:54.526Z,7.57
2023-01-15T09:37:20.863Z,7.42
2023-01-15T09:39:47.303Z,7.24
2023-01-15T09:42:22.630Z,7.48
2023-01-15T09:45:05.292Z,7.29
2023-01-15T09:47:55.835Z,7.23
2023-01-15T09:50:40.514Z,7.23
2023-01-15T09:53:21.939Z,7.12
2023-01-15T09:55:50.469Z,7.19
2023-01-15T09:58:18.429Z,7.06
2023-01-15T10:00:46.751Z,7.14
2023-01-15T10:03:26.630Z,6.99
2023-01-15T10:06:03.924Z,7.13
2023-01-15T10:08:46.548Z,7.15
2023-01-15T10:11:16.154Z,7.11
2023-01-15T10:13:48.468Z,7.04
2023-01-15T10:16:36.124Z,7.06
2023-01-15T10:19:03.391Z,7.13
2023-01-15T10:21:30.382Z,7.21
2023-01-15T10:24:07.168Z,7.20
2023-01-15T10:26:36.278Z,7.14
2023-01-15T10:29:06.396Z,7.02
2023-01-15T10:31:39.156Z,7.13
2023-01-15T10:34:28.845Z,7.12
2023-01-15T10:36:59.981Z,7.15
2023-01-15T10:39:30.343Z,6.85
2023-01-15T10:42:02.114Z,7.04
2023-01-15T10:44:36.855Z,7.17
2023-01-15T10:47:05.251Z,7.06
2023-01-15T10:49:31.651Z,6.75
2023-01-15T10:52:16.706Z,6.93
2023-01-15T10:54:47.451Z,6.74
2023-01-15T10:57:32.694Z,6.76
2023-01-15T11:00:00.529Z,6.93
2023-01-15T11:02:36.047Z,6.83
2023-01-15T11:05:03.859Z,6.55
2023-01-15T11:08:03.191Z,6.73
2023-01-15T11:10:28.405Z,6.76
2023-01-15T11:13:14.857Z,6.69
2023-01-15T11:16:04.117Z,6.86
2023-01-15T11:18:55.040Z,6.85
2023-01-15T11:21:23.533Z,6.73
2023-01-15T11:23:50.564Z,6.82
2023-01-15T11:26:25.060Z,6.78
2023-01-15T11:28:52.638Z,6.65
2023-01-15T11:31:19.076Z,6.64
2023-01-15T11:33:55.536Z,6.62
2023-01-15T11:36:26.207Z,6.64
2023-01-15T11:38:53.164Z,6.64
2023-01-15T11:41:21.923Z,6.46
2023-01-15T11:44:14.259Z,6.61
2023-01-15T11:46:59.092Z,6.63
2023-01-15T11:49:44.243Z,6.66
2023-01-15T11:52:14.168Z,6.73
2023-01-15T11:54:42.401Z,6.54
2023-01-15T11:57:09.724Z,6.38
2023-01-15T11:59:37.172Z,6.48
2023-01-15T12:02:54.977Z,6.48
2023-01-15T12:05:24.284Z,6.43
2023-01-15T12:07:55.363Z,6.26
2023-01-15T12:10:44.820Z,6.21
2023-01-15T12:13:13.921Z,6.50
2023-01-15T12:15:59.166Z,6.24
2023-01-15T12:18:44.651Z,6.22
2023-01-15T12:21:17.063Z,6.00
2023-01-15T12:23:46.286Z,6.09
2023-01-15T12:26:31.870Z,6.09
2023-01-15T12:29:04.399Z,6.16
2023-01-15T12:31:34.977Z,5.98
2023-01-15T12:34:23.422Z,5.84
2023-01-15T12:36:56.136Z,5.98
2023-01-15T12:39:22.437Z,5.84
2023-01-15T12:42:20.754Z,6.11
2023-01-15T12:45:05.816Z,5.91
2023-01-15T12:47:44.328Z,5.85
2023-01-15T12:50:16.538Z,5.87
2023-01-15T12:52:45.376Z,6.09
2023-01-15T12:55:18.474Z,6.08
2023-01-15T12:57:51.508Z,5.97
2023-01-15T13:00:30.035Z,5.78
2023-01-15T13:02:56.392Z,5.83
2023-01-15T13:05:47.699Z,5.84
2023-01-15T13:08:29.070Z,5.80
2023-01-15T13:10:55.446Z,5.80
2023-01-15T13:13:29.022Z,5.72
2023-01-15T13:16:00.208Z,5.64
2023-01-15T13:18:26.699Z,5.61
2023-01-15T13:20:55.003Z,5.90
2023-01-15T13:23:40.247Z,5.65
2023-01-15T13:26:15.845Z,5.67
2023-01-15T13:28:44.282Z,5.55
2023-01-15T13:31:29.484Z,5.86
2023-01-15T13:33:59.322Z,5.60
2023-01-15T13:36:25.739Z,5.52
2023-01-15T13:38:54.901Z,5.55
2023-01-15T13:41:42.476Z,5.70
2023-01-15T13:44:18.029Z,5.68
2023-01-15T13:46:44.699Z,5.70
2023-01-15T13:49:18.165Z,5.66
2023-01-15T13:51:48.179Z,5.56
2023-01-15T13:54:17.014Z,5.31
2023-01-15T13:56:44.672Z,5.43
2023-01-15T13:59:29.907Z,5.51
2023-01-15T14:01:56.293Z,5.37
2023-01-15T14:04:43.894Z,5.36
2023-01-15T14:07:18.433Z,5.15
2023-01-15T14:09:44.910Z,5.14
2023-01-15T14:12:43.138Z,5.28
2023-01-15T14:15:18.845Z,5.18
2023-01-15T14:17:45.156Z,4.91
2023-01-15T14:20:26.351Z,4.78
2023-01-15T14:22:57.923Z,4.80
2023-01-15T14:25:31.749Z,4.70
2023-01-15T14:28:02.222Z,4.86
2023-01-15T14:30:47.227Z,4.86
2023-01-15T14:33:26.345Z,4.81
2023-01-15T14:35:52.911Z,4.81
2023-01-15T14:38:22.201Z,4.79
2023-01-15T14:41:02.333Z,4.70
2023-01-15T14:43:31.330Z,4.70
2023-01-15T14:46:13.269Z,4.81
2023-01-15T14:48:39.808Z,4.53
2023-01-15T14:51:21.221Z,4.39
2023-01-15T14:53:52.274Z,4.22
2023-01-15T14:56:18.621Z,4.32
2023-01-15T14:58:53.068Z,4.36
2023-01-15T15:01:22.349Z,4.38
2023-01-15T15:03:51.407Z,4.28
2023-01-15T15:06:17.973Z,4.00
2023-01-15T15:08:44.893Z,4.22
2023-01-15T15:11:56.504Z,4.10
2023-01-15T15:14:26.093Z,3.91
2023-01-15T15:16:53.990Z,3.98
2023-01-15T15:19:27.058Z,3.79
2023-01-15T15:21:55.222Z,3.80
2023-01-15T15:24:34.224Z,3.78
2023-01-15T15:27:30.070Z,3.86
2023-01-15T15:30:03.685Z,3.59
2023-01-15T15:32:31.887Z,3.97
2023-01-15T15:34:58.310Z,3.56
2023-01-15T15:37:28.283Z,3.51
2023-01-15T15:40:06.066Z,3.62
2023-01-15T15:42:57.163Z,3.72
2023-01-15T15:45:46.786Z,3.74
2023-01-15T15:48:31.929Z,3.69
2023-01-15T15:50:58.911Z,3.74
2023-01-15T15:53:34.245Z,3.53
2023-01-15T15:56:00.722Z,3.46
2023-01-15T15:58:30.085Z,3.50
2023-01-15T16:00:58.647Z,3.64
2023-01-15T16:03:26.461Z,3.61
2023-01-15T16:06:00.025Z,3.78
2023-01-15T16:08:27.289Z,3.71
2023-01-15T16:10:55.358Z,3.67
2023-01-15T16:13:30.728Z,3.75
2023-01-15T16:15:58.443Z,3.79
2023-01-15T16:18:31.169Z,3.85
2023-01-15T16:20:58.027Z,3.86
2023-01-15T16:23:25.908Z,3.83
2023-01-15T16:26:14.217Z,3.58
2023-01-15T16:28:46.972Z,4.02
2023-01-15T16:31:15.479Z,3.81
2023-01-15T16:33:41.841Z,3.70
2023-01-15T16:36:08.541Z,3.67
2023-01-15T16:38:47.238Z,3.83
2023-01-15T16:41:19.141Z,3.76
2023-01-15T16:43:56.484Z,3.48
2023-01-15T16:46:24.056Z,3.51
2023-01-15T16:49:10.357Z,3.37
2023-01-15T16:51:42.024Z,3.26
2023-01-15T16:54:28.320Z,3.39
2023-01-15T16:56:54.938Z,3.32
2023-01-15T16:59:27.308Z,3.53
2023-01-15T17:01:56.926Z,3.44
2023-01-15T17:04:29.668Z,3.49
2023-01-15T17:07:15.798Z,3.37
2023-01-15T17:09:47.049Z,3.21
2023-01-15T17:12:31.970Z,3.10
2023-01-15T17:15:18.352Z,3.22
2023-01-15T17:17:48.915Z,3.10
2023-01-15T17:20:15.916Z,3.04
2023-01-15T17:22:44.886Z,3.04
2023-01-15T17:25:27.957Z,2.74
2023-01-15T17:27:55.865Z,2.88
2023-01-15T17:30:26.179Z,2.98
2023-01-15T17:32:52.486Z,2.71
2023-01-15T17:35:23.527Z,2.84
2023-01-15T17:37:49.872Z,2.90
2023-01-15T17:40:16.300Z,2.78
2023-01-15T17:42:42.675Z,2.83
2023-01-15T17:45:22.209Z,2.92
2023-01-15T17:47:48.981Z,2.77
2023-01-15T17:50:17.302Z,2.80
2023-01-15T17:52:43.902Z,2.67
2023-01-15T17:55:33.313Z,2.74
2023-01-15T17:58:18.103Z,2.53
2023-01-15T18:01:03.899Z,2.53
2023-01-15T18:03:49.359Z,2.71
2023-01-15T18:06:16.257Z,2.54
2023-01-15T18:08:44.345Z,2.63
2023-01-15T18:11:11.148Z,2.69
2023-01-15T18:13:37.720Z,2.36
2023-01-15T18:16:04.182Z,2.35
2023-01-15T18:18:30.496Z,2.45
2023-01-15T18:20:57.023Z,2.45
2023-01-15T18:23:23.448Z,2.47
2023-01-15T18:25:50.947Z,2.41
2023-01-15T18:28:17.315Z,2.73
2023-01-15T18:30:43.874Z,2.43
2023-01-15T18:33:10.194Z,2.40
2023-01-15T18:35:36.557Z,2.26
2023-01-15T18:38:02.899Z,2.22
2023-01-15T18:40:30.732Z,2.24
2023-01-15T18:43:15.869Z,2.19
2023-01-15T18:46:05.783Z,2.35
2023-01-15T18:48:32.428Z,2.21
2023-01-15T18:51:00.233Z,2.08
2023-01-15T18:53:26.579Z,2.14
2023-01-15T18:56:00.906Z,2.29
2023-01-15T18:58:27.246Z,2.04
2023-01-15T19:00:53.656Z,2.29
2023-01-15T19:03:20.040Z,2.26
2023-01-15T19:05:46.338Z,2.39
2023-01-15T19:08:12.857Z,2.26
2023-01-15T19:10:39.194Z,2.27
2023-01-15T19:13:05.637Z,2.39
2023-01-15T19:15:50.913Z,2.44
2023-01-15T19:18:36.229Z,2.44
2023-01-15T19:21:08.866Z,2.34
2023-01-15T19:23:35.323Z,2.39
2023-01-15T19:26:02.964Z,2.45
2023-01-15T19:28:29.598Z,2.41
2023-01-15T19:31:14.428Z,2.25
2023-01-15T19:33:40.756Z,2.26
2023-01-15T19:36:07.257Z,2.24
2023-01-15T19:38:36.941Z,2.17
2023-01-15T19:41:27.206Z,2.20
2023-01-15T19:44:12.090Z,2.52
2023-01-15T19:46:57.246Z,2.16
2023-01-15T19:49:59.945Z,2.17
2023-01-15T19:52:35.165Z,2.09
2023-01-15T19:55:03.238Z,2.04
2023-01-15T19:57:30.131Z,2.13
2023-01-15T19:59:56.618Z,2.16
2023-01-15T20:02:23.016Z,2.19
2023-01-15T20:04:56.335Z,2.26
2023-01-15T20:07:22.689Z,2.13
2023-01-15T20:09:49.094Z,1.95
2023-01-15T20:12:33.943Z,2.16
2023-01-15T20:15:00.535Z,2.21
2023-01-15T20:17:29.172Z,2.19
2023-01-15T20:20:03.777Z,2.22
2023-01-15T20:22:31.060Z,2.23
2023-01-15T20:24:57.443Z,2.33
2023-01-15T20:27:23.923Z,2.28
2023-01-15T20:30:00.627Z,2.25
2023-01-15T20:32:27.082Z,2.25
2023-01-15T20:34:53.410Z,2.20
2023-01-15T20:37:19.738Z,2.20
2023-01-15T20:39:46.076Z,2.24
2023-01-15T20:42:30.921Z,2.20
2023-01-15T20:44:57.532Z,2.18
2023-01-15T20:47:45.528Z,2.16
2023-01-15T20:50:15.650Z,2.11
2023-01-15T20:52:49.983Z,2.14
2023-01-15T20:55:17.450Z,2.00
2023-01-15T20:57:43.910Z,1.95
2023-01-15T21:00:13.646Z,1.92
2023-01-15T21:02:40.086Z,1.78
2023-01-15T21:05:07.716Z,1.82
2023-01-15T21:07:34.910Z,1.86
2023-01-15T21:10:02.438Z,1.80
2023-01-15T21:12:28.777Z,1.76
2023-01-15T21:14:55.162Z,1.72
2023-01-15T21:17:21.523Z,1.75
2023-01-15T21:19:47.852Z,1.70
2023-01-15T21:22:14.394Z,1.72
2023-01-15T21:24:40.908Z,1.72
2023-01-15T21:27:07.235Z,1.79
2023-01-15T21:29:33.655Z,1.85
2023-01-15T21:32:00.069Z,1.81
2023-01-15T21:34:26.470Z,1.86
2023-01-15T21:36:52.791Z,1.82
2023-01-15T21:39:19.158Z,1.81
2023-01-15T21:42:04.048Z,1.80
2023-01-15T21:44:31.563Z,1.81
2023-01-15T21:46:58.840Z,1.85
2023-01-15T21:49:25.336Z,1.79
2023-01-15T21:51:51.679Z,1.74
2023-01-15T21:54:18.131Z,1.59
2023-01-15T21:56:47.453Z,1.28
2023-01-15T21:59:14.207Z,1.19
2023-01-15T22:01:40.871Z,1.16
2023-01-15T22:04:07.404Z,1.41
2023-01-15T22:06:33.735Z,1.44
2023-01-15T22:09:00.131Z,1.26
2023-01-15T22:11:43.586Z,1.32
2023-01-15T22:14:14.010Z,1.25
2023-01-15T22:16:41.241Z,1.36
2023-01-15T22:19:08.451Z,1.33
2023-01-15T22:21:35.133Z,1.29
2023-01-15T22:24:02.379Z,1.42
2023-01-15T22:26:32.168Z,1.49
2023-01-15T22:29:06.247Z,1.50
2023-01-15T22:31:32.578Z,1.45
2023-01-15T22:33:59.578Z,1.55
2023-01-15T22:36:27.343Z,1.40
2023-01-15T22:38:54.948Z,1.60
2023-01-15T22:41:40.215Z,1.59
2023-01-15T22:44:07.290Z,1.50
2023-01-15T22:46:33.790Z,1.40
2023-01-15T22:49:00.131Z,1.51
2023-01-15T22:51:26.466Z,1.53
2023-01-15T22:53:53.450Z,1.60
2023-01-15T22:56:20.003Z,1.61
2023-01-15T22:58:46.333Z,1.54
2023-01-15T23:01:12.794Z,1.58
2023-01-15T23:03:39.593Z,1.41
2023-01-15T23:06:07.106Z,1.51
2023-01-15T23:08:35.356Z,1.50
2023-01-15T23:11:12.427Z,1.49
2023-01-15T23:13:38.907Z,1.49
2023-01-15T23:16:05.504Z,1.55
2023-01-15T23:18:34.731Z,1.53
2023-01-15T23:21:08.398Z,1.45
2023-01-15T23:23:35.083Z,1.21
2023-01-15T23:26:08.764Z,1.16
2023-01-15T23:28:35.080Z,1.01
2023-01-15T23:31:01.555Z,0.99
2023-01-15T23:33:27.996Z,1.01
2023-01-15T23:35:54.323Z,0.95
2023-01-15T23:38:20.909Z,1.01
2023-01-15T23:40:48.364Z,0.98
2023-01-15T23:43:33.911Z,0.90
2023-01-15T23:46:20.859Z,0.86
2023-01-15T23:48:47.215Z,0.80
2023-01-15T23:51:13.620Z,0.76
2023-01-15T23:53:39.959Z,0.76
2023-01-15T23:56:06.599Z,0.71
2023-01-15T23:58:33.491Z,0.70
